Latest Weather Observations for Port Macquarie Airport

IDN60801

Issued at 11:32 pm EDT Wednesday 10 February 2016 (issued every 30 minutes, with the page automatically refreshed every 10 minutes)

About weather observations | Map of weather stations | Latest weather observations for NSW | Other Formats
Station Details ID: 060139 Name: PORT MACQUARIE AIRPORT AWS Lat: -31.43 Lon: 152.87 Height: 4.2 m
Data from the previous 72 hours. | See also: Recent months at Port Macquarie Airport
Date/Time
EDT
Temp
°C
App
Temp
°C
Dew
Point
Rel
Hum
%
Delta-T
°C
Wind Press
QNH
hPa
Press
MSL
hPa
Rain
since 9 am
mm
Dir
 
Spd
km/h
Gust
km/h
Spd
kts
Gust
kts
10/11:30pm 21.1 23.7 18.5 85 1.6 NW 2 9 1 5 1014.7 1014.7 0.0
10/11:00pm 21.8 23.5 18.4 81 2.1 NNE 7 9 4 5 1014.9 1014.9 0.0
10/10:30pm 21.4 23.4 18.8 85 1.6 N 6 7 3 4 1015.0 1015.0 0.0
10/10:00pm 21.3 22.9 18.3 83 1.9 NNW 7 9 4 5 1015.1 1015.1 0.0
10/09:30pm 20.4 22.0 18.2 87 1.4 N 7 9 4 5 1015.0 1015.0 0.0
10/09:00pm 20.6 22.0 17.4 82 2.0 N 6 7 3 4 1014.8 1014.8 0.0
10/08:30pm 22.4 23.9 18.0 76 2.7 NNE 7 11 4 6 1014.6 1014.6 0.0
10/08:00pm 23.3 23.8 17.5 70 3.6 NE 11 15 6 8 1014.5 1014.5 0.0
10/07:30pm 23.7 23.8 17.4 68 3.9 NE 13 17 7 9 1014.3 1014.3 0.0
10/07:00pm 24.5 24.5 18.0 67 4.1 ENE 15 20 8 11 1014.0 1014.0 0.0
10/06:30pm 24.8 24.2 17.5 64 4.6 ENE 17 24 9 13 1013.8 1013.8 0.0
10/06:00pm 25.3 24.9 18.0 64 4.6 ENE 17 20 9 11 1013.9 1013.9 0.0
10/05:30pm 25.8 25.8 18.0 62 4.9 E 15 22 8 12 1013.6 1013.6 0.0
10/05:00pm 26.4 26.7 18.8 63 4.9 E 15 20 8 11 1013.5 1013.5 0.0
10/04:30pm 26.4 26.6 18.5 62 5.0 E 15 26 8 14 1013.6 1013.6 0.0
10/04:00pm 26.2 25.8 18.1 61 5.1 E 17 24 9 13 1013.7 1013.7 0.0
10/03:30pm 26.3 26.0 18.2 61 5.1 ESE 17 28 9 15 1013.9 1013.9 0.0
10/03:00pm 25.9 25.9 18.1 62 4.9 SE 15 24 8 13 1014.1 1014.1 0.0
10/02:30pm 26.0 25.5 17.9 61 5.1 SE 17 22 9 12 1014.4 1014.4 0.0
10/02:00pm 25.8 26.1 18.0 62 4.9 ESE 13 20 7 11 1014.7 1014.7 0.0
10/01:30pm 26.1 26.5 18.2 61 5.0 ESE 13 17 7 9 1015.0 1015.0 0.0
10/01:00pm 25.6 26.5 18.3 64 4.6 SE 11 15 6 8 1015.2 1015.2 0.0
10/12:30pm 25.5 26.7 18.2 64 4.6 NE 9 15 5 8 1015.5 1015.5 0.0
10/12:00pm 24.8 25.6 17.3 63 4.7 NNE 9 13 5 7 1015.6 1015.6 0.0
10/11:30am 25.2 26.2 16.4 58 5.4 E 6 9 3 5 1015.9 1015.9 0.0
10/11:00am 24.9 25.8 16.6 60 5.1 SSE 7 13 4 7 1016.0 1016.0 0.0
10/10:30am 24.5 25.4 16.7 61 4.8 SW 7 13 4 7 1016.1 1016.1 0.0
10/10:00am 24.1 24.6 15.6 59 5.1 SW 7 13 4 7 1016.2 1016.2 0.0
10/09:30am 24.0 24.2 16.8 64 4.4 WSW 11 15 6 8 1016.2 1016.2 0.0
10/09:00am 22.8 23.9 17.9 74 3.0 W 9 15 5 8 1016.3 1016.3 2.8
10/08:30am 21.8 23.1 18.4 81 2.1 WSW 9 13 5 7 1016.1 1016.1 2.8
10/08:00am 20.4 21.5 18.0 86 1.5 W 9 13 5 7 1016.1 1016.1 2.8
10/07:30am 19.0 19.5 17.5 91 0.9 W 11 17 6 9 1016.1 1016.1 2.8
10/07:00am 18.0 19.7 17.2 95 0.5 WSW 4 7 2 4 1015.9 1015.9 2.8
10/06:30am 17.7 18.8 16.7 94 0.6 W 6 7 3 4 1015.8 1015.8 2.6
10/06:00am 18.0 19.1 17.2 95 0.5 W 7 11 4 6 1015.7 1015.7 2.6
10/05:30am 17.8 19.8 17.0 95 0.5 W 2 6 1 3 1015.6 1015.6 2.6
10/05:00am 18.2 20.4 17.4 95 0.5 W 2 6 1 3 1015.5 1015.5 2.6
10/04:30am 18.0 19.3 17.2 95 0.5 W 6 7 3 4 1015.5 1015.5 2.6
10/04:00am 17.6 19.8 16.6 94 0.6 CALM 0 6 0 3 1015.3 1015.3 2.6
10/03:30am 17.7 20.0 16.7 94 0.6 CALM 0 0 0 0 1015.4 1015.4 2.6
10/03:00am 17.7 20.0 16.7 94 0.6 CALM 0 0 0 0 1015.7 1015.7 2.6
10/02:30am 17.9 19.0 17.1 95 0.5 WNW 7 9 4 5 1016.1 1016.1 2.6
10/02:00am 18.4 20.2 17.4 94 0.6 WSW 4 6 2 3 1016.3 1016.3 2.6
10/01:30am 18.5 19.8 17.0 91 0.9 SW 6 7 3 4 1016.7 1016.7 2.6
10/01:00am 19.2 20.7 17.5 90 1.0 SSW 6 7 3 4 1017.0 1017.0 2.6
10/12:30am 19.7 22.7 18.4 92 0.8 CALM 0 6 0 3 1017.5 1017.5 2.6
10/12:00am 19.7 22.7 18.4 92 0.8 CALM 0 0 0 0 1017.7 1017.7 2.6
 
Date/Time
EDT
Temp
°C
App
Temp
°C
Dew
Point
Rel
Hum
%
Delta-T
°C
Wind Press
QNH
hPa
Press
MSL
hPa
Rain
since 9 am
mm
Dir
 
Spd
km/h
Gust
km/h
Spd
kts
Gust
kts
09/11:30pm 19.9 21.6 18.0 89 1.2 WSW 6 6 3 3 1018.0 1018.0 2.6
09/11:00pm 20.2 21.6 17.4 84 1.7 SW 6 7 3 4 1018.1 1018.1 2.6
09/10:30pm 21.4 22.7 17.6 79 2.3 SSE 7 9 4 5 1018.4 1018.4 2.6
09/10:00pm 21.6 22.9 17.6 78 2.5 SSE 7 11 4 6 1018.4 1018.4 2.6
09/09:30pm 22.2 22.6 18.2 78 2.5 SE 13 17 7 9 1018.2 1018.2 2.6
09/09:00pm 21.7 23.2 18.1 80 2.2 SSE 7 9 4 5 1018.2 1018.2 2.6
09/08:30pm 22.4 23.6 18.2 77 2.6 SE 9 15 5 8 1018.1 1018.1 2.6
09/08:00pm 22.7 24.0 18.5 77 2.6 SE 9 15 5 8 1018.0 1018.0 2.6
09/07:30pm 23.2 24.1 18.5 75 3.0 SSE 11 17 6 9 1018.0 1018.0 2.6
09/07:00pm 23.6 24.2 18.5 73 3.2 SSE 13 22 7 12 1017.7 1017.7 2.6
09/06:30pm 23.8 24.2 18.9 74 3.1 SE 15 28 8 15 1017.4 1017.4 2.6
09/06:00pm 24.5 24.7 19.3 73 3.3 SSE 17 22 9 12 1017.3 1017.3 2.6
09/05:30pm 24.8 24.0 19.2 71 3.6 SSE 22 32 12 17 1017.3 1017.3 2.6
09/05:00pm 25.0 24.9 20.0 74 3.2 SSE 20 30 11 16 1017.2 1017.2 2.6
09/04:30pm 24.8 24.1 19.6 73 3.3 SSE 22 33 12 18 1017.2 1017.2 2.6
09/04:00pm 25.8 25.3 19.9 70 3.8 SSE 22 35 12 19 1017.3 1017.3 2.6
09/03:30pm 25.1 24.8 20.4 75 3.1 S 22 30 12 16 1017.6 1017.6 2.6
09/03:00pm 24.4 26.8 22.3 88 1.4 S 13 26 7 14 1017.7 1017.7 2.6
09/02:54pm 23.3 25.3 21.6 90 1.1 S 13 19 7 10 1017.8 1017.8 2.6
09/02:39pm 22.3 23.6 20.2 88 1.4 S 13 28 7 15 1018.1 1018.1 2.6
09/02:30pm 23.4 25.9 21.7 90 1.1 SW 11 13 6 7 1018.0 1018.0 1.0
09/02:02pm 21.7 23.5 20.3 92 0.9 SSE 11 15 6 8 1018.4 1018.4 1.0
09/02:00pm 21.9 23.8 20.5 92 0.9 SSE 11 20 6 11 1018.5 1018.5 1.0
09/01:45pm 21.7 21.0 19.6 88 1.3 SSE 22 35 12 19 1018.7 1018.7 0.6
09/01:30pm 24.6 24.5 18.8 70 3.7 SSW 17 26 9 14 1018.4 1018.4 0.0
09/01:00pm 24.3 23.0 19.1 73 3.3 SSW 24 32 13 17 1018.5 1018.5 0.0
09/12:30pm 24.1 22.7 18.7 72 3.4 S 24 35 13 19 1018.8 1018.8 0.0
09/12:00pm 22.9 22.2 19.5 81 2.2 SSE 22 30 12 16 1019.1 1019.1 0.0
09/11:30am 24.0 22.6 18.9 73 3.2 S 24 39 13 21 1019.0 1019.0 0.0
09/11:00am 23.5 22.5 17.9 71 3.5 SSE 20 28 11 15 1019.0 1019.0 0.0
09/10:30am 24.1 24.0 18.7 72 3.4 SSW 17 22 9 12 1018.8 1018.8 0.0
09/10:00am 23.8 23.4 18.9 74 3.1 SW 19 26 10 14 1018.7 1018.7 0.0
09/09:30am 23.9 23.4 19.2 75 3.0 SW 20 30 11 16 1018.8 1018.8 0.0
09/09:00am 23.1 22.5 18.4 75 2.9 SW 19 26 10 14 1018.6 1018.6 1.2
09/08:30am 22.1 22.7 19.5 85 1.7 WSW 15 20 8 11 1018.4 1018.4 1.2
09/08:00am 20.4 21.7 19.2 93 0.8 SSW 11 13 6 7 1018.1 1018.1 1.2
09/07:30am 19.7 20.4 18.9 95 0.5 WSW 13 19 7 10 1017.7 1017.7 1.2
09/07:00am 19.0 20.6 18.3 96 0.4 WSW 7 9 4 5 1017.5 1017.5 1.2
09/06:30am 18.9 20.5 18.2 96 0.4 W 7 9 4 5 1017.3 1017.3 1.2
09/06:00am 18.8 20.3 18.1 96 0.4 W 7 9 4 5 1016.9 1016.9 1.2
09/05:30am 19.0 20.8 18.3 96 0.4 W 6 7 3 4 1016.5 1016.5 1.2
09/05:00am 18.9 21.4 18.2 96 0.4 W 2 6 1 3 1016.5 1016.5 1.2
09/04:30am 18.8 20.5 18.0 95 0.5 W 6 9 3 5 1016.3 1016.3 1.2
09/04:00am 19.1 21.3 18.3 95 0.5 W 4 7 2 4 1016.2 1016.2 1.2
09/03:30am 19.3 21.6 18.5 95 0.5 W 4 6 2 3 1016.3 1016.3 1.2
09/03:00am 19.6 21.5 18.6 94 0.6 WNW 6 7 3 4 1016.5 1016.5 1.2
09/02:39am 20.0 22.0 19.2 95 0.5 W 7 9 4 5 1016.7 1016.7 1.2
09/02:30am 20.2 21.9 19.4 95 0.5 SW 9 17 5 9 1016.9 1016.9 1.0
09/02:19am 20.2 21.1 19.2 94 0.6 SSW 13 19 7 10 1017.0 1017.0 0.8
09/02:00am 19.7 21.5 18.2 91 0.9 W 6 9 3 5 1016.9 1016.9 0.0
09/01:30am 19.3 21.9 17.4 89 1.2 CALM 0 4 0 2 1017.0 1017.0 0.0
09/01:00am 19.9 21.5 18.2 90 1.1 SW 7 9 4 5 1017.3 1017.3 0.0
09/12:30am 20.5 23.1 18.4 88 1.3 WSW 2 7 1 4 1017.7 1017.7 0.0
09/12:00am 21.1 23.9 18.9 87 1.4 SSW 2 7 1 4 1017.9 1017.9 0.0
 
Date/Time
EDT
Temp
°C
App
Temp
°C
Dew
Point
Rel
Hum
%
Delta-T
°C
Wind Press
QNH
hPa
Press
MSL
hPa
Rain
since 9 am
mm
Dir
 
Spd
km/h
Gust
km/h
Spd
kts
Gust
kts
08/11:30pm 20.8 22.5 18.6 87 1.4 S 7 7 4 4 1017.9 1017.9 0.0
08/11:00pm 21.1 22.0 18.5 85 1.6 W 11 15 6 8 1017.8 1017.8 0.0
08/10:30pm 20.8 22.5 18.4 86 1.5 WSW 7 13 4 7 1018.0 1018.0 0.0
08/10:00pm 21.0 22.7 18.4 85 1.6 WSW 7 9 4 5 1018.0 1018.0 0.0
08/09:30pm 21.4 22.8 18.6 84 1.8 WSW 9 11 5 6 1017.8 1017.8 0.0
08/09:00pm 22.1 23.7 19.1 83 1.9 SW 9 11 5 6 1017.5 1017.5 0.0
08/08:30pm 22.3 24.3 19.1 82 2.0 SW 7 9 4 5 1017.2 1017.2 0.0
08/08:00pm 23.0 23.5 18.3 75 2.9 S 13 17 7 9 1017.0 1017.0 0.0
08/07:30pm 23.8 23.5 18.2 71 3.5 SSW 17 24 9 13 1016.8 1016.8 0.0
08/07:00pm 24.5 23.5 18.0 67 4.1 S 20 28 11 15 1016.5 1016.5 0.0
08/06:30pm 25.1 23.6 17.8 64 4.6 S 22 32 12 17 1016.1 1016.1 0.0
08/06:00pm 25.4 24.1 18.1 64 4.6 S 22 33 12 18 1016.0 1016.0 0.0
08/05:30pm 25.5 24.2 18.2 64 4.6 S 22 30 12 16 1016.0 1016.0 0.0
08/05:00pm 25.8 24.4 18.7 65 4.5 S 24 32 13 17 1015.9 1015.9 0.0
08/04:30pm 25.6 24.1 18.5 65 4.5 SSE 24 33 13 18 1016.0 1016.0 0.0
08/04:00pm 25.9 25.7 19.3 67 4.2 SSE 19 30 10 16 1016.2 1016.2 0.0
08/03:30pm 25.7 25.4 19.6 69 3.9 SE 20 30 11 16 1016.3 1016.3 0.0
08/03:00pm 25.5 24.8 19.4 69 3.9 SSE 22 33 12 18 1016.5 1016.5 0.0
08/02:30pm 25.8 25.3 19.9 70 3.8 SSE 22 32 12 17 1016.8 1016.8 0.0
08/02:00pm 26.5 26.3 20.6 70 3.9 S 22 33 12 18 1016.9 1016.9 0.0
08/01:30pm 26.5 26.4 19.9 67 4.3 S 20 30 11 16 1016.9 1016.9 0.0
08/01:00pm 25.8 24.9 19.0 66 4.3 SSE 22 33 12 18 1017.2 1017.2 0.0
08/12:30pm 25.4 24.4 18.8 67 4.2 SSE 22 35 12 19 1017.2 1017.2 0.0
08/12:00pm 25.4 26.7 20.2 73 3.4 SSW 13 24 7 13 1017.5 1017.5 0.0
08/11:30am 22.5 23.6 19.7 84 1.8 SE 13 26 7 14 1017.9 1017.9 0.0
08/11:00am 24.0 24.2 20.1 79 2.5 SSW 19 22 10 12 1017.9 1017.9 0.0
08/10:30am 23.7 24.1 19.8 79 2.5 SW 17 24 9 13 1017.7 1017.7 0.0
08/10:00am 22.7 22.7 19.7 83 1.9 SW 19 26 10 14 1017.9 1017.9 0.0
08/09:30am 22.7 22.7 18.0 75 2.9 WSW 15 20 8 11 1017.6 1017.6 0.0
08/09:00am 22.2 22.9 18.0 77 2.6 WSW 11 15 6 8 1017.4 1017.4 0.0
08/08:30am 21.2 21.0 16.8 76 2.7 WSW 13 17 7 9 1017.2 1017.2 0.0
08/08:00am 20.0 20.1 16.6 81 2.0 W 11 17 6 9 1017.0 1017.0 0.0
08/07:30am 18.9 19.2 16.1 84 1.7 W 9 15 5 8 1016.9 1016.9 0.0
08/07:00am 17.8 18.2 15.4 86 1.4 WSW 7 11 4 6 1016.7 1016.7 0.0
08/06:30am 17.7 17.7 15.3 86 1.4 WSW 9 15 5 8 1016.4 1016.4 0.0
08/06:00am 17.8 17.5 15.4 86 1.4 W 11 17 6 9 1016.2 1016.2 0.0
08/05:30am 17.9 17.2 15.5 86 1.4 W 13 17 7 9 1016.0 1016.0 0.0
08/05:00am 18.0 17.8 15.6 86 1.4 W 11 17 6 9 1016.0 1016.0 0.0
08/04:30am 18.1 17.9 15.7 86 1.4 W 11 17 6 9 1015.9 1015.9 0.0
08/04:00am 18.3 17.7 15.7 85 1.5 W 13 19 7 10 1015.9 1015.9 0.0
08/03:30am 18.3 17.3 15.7 85 1.5 W 15 20 8 11 1016.0 1016.0 0.0
08/03:00am 18.4 17.4 15.6 84 1.6 W 15 19 8 10 1016.1 1016.1 0.0
08/02:30am 18.6 17.3 15.8 84 1.7 W 17 24 9 13 1016.2 1016.2 0.0
08/02:00am 18.6 18.1 16.0 85 1.5 W 13 19 7 10 1016.6 1016.6 0.0
08/01:30am 18.8 18.0 16.0 84 1.7 WNW 15 20 8 11 1016.8 1016.8 0.0
08/01:00am 18.9 19.8 16.7 87 1.3 WSW 7 13 4 7 1017.3 1017.3 0.0
08/12:30am 18.7 19.9 16.9 89 1.1 W 6 9 3 5 1017.4 1017.4 0.0
08/12:00am 18.4 19.5 16.6 89 1.1 W 6 7 3 4 1017.6 1017.6 0.0

Other Formats:

Comma delimited format used in spreadsheet applications
http://www.bom.gov.au/fwo/IDN60801/IDN60801.94786.axf

JavaScript Object Notation format (JSON) in row-major order
http://www.bom.gov.au/fwo/IDN60801/IDN60801.94786.json